Time;durP1;ratioP1;P1;durP2;ratioP2;P2;SDS_P1;SDS_P2;PMS_P1;PMS_P2;Temp;Humidity;BMP_temperature;BMP_pressure;BME280_temperature;BME280_humidity;BME280_pressure;Samples;Min_cycle;Max_cycle;Signal;HPM_P1;HPM_P2
2022/01/24 00:00:07;;;;;;;;;;;;;;;;;;5116882;28;19919;-78
2022/01/24 00:02:32;;;;;;;;;;;;;;;;;;5117165;28;19920;-78
2022/01/24 00:04:58;;;;;;;;;;;;;;;;;;5117198;28;19961;-79
2022/01/24 00:07:24;;;;;;;;;;;;;;;;;;5119021;28;19919;-77
2022/01/24 00:09:53;;;;;;;;;;;;;;;;;;5116927;28;19963;-77
2022/01/24 00:12:27;;;;;;;;;;;;;;;;;;5117127;28;19915;-77
2022/01/24 00:28:06;;;;;;;;;;;;;;;;;;5116395;28;20329;-77
2022/01/24 00:30:32;;;;;;;;;;;;;;;;;;5116855;28;20010;-77
2022/01/24 00:32:57;;;;;;;;;;;;;;;;;;5116887;28;20372;-77
2022/01/24 00:35:23;;;;;;;;;;;;;;;;;;5116366;28;19922;-78
2022/01/24 00:37:49;;;;;;;;;;;;;;;;;;5116092;28;20032;-77
2022/01/24 00:40:15;;;;;;;;;;;;;;;;;;5116468;28;19919;-77
2022/01/24 00:42:51;;;;;;;;;;;;;;;;;;5116141;28;19923;-78
2022/01/24 00:53:17;;;;;;;;;;;;;;;;;;5116881;28;19922;-78
2022/01/24 00:55:43;;;;;;;;;;;;;;;;;;5116021;28;19922;-77
2022/01/24 00:58:09;;;;;;;;;;;;;;;;;;5116068;28;19947;-77
2022/01/24 01:00:35;;;;;;;;;;;;;;;;;;5115507;28;20333;-78
2022/01/24 01:03:00;;;;;;;;;;;;;;;;;;5115779;28;20018;-78
2022/01/24 01:18:47;;;;;;;;;;;;;;;;;;5115872;28;19922;-77
2022/01/24 01:21:16;;;;;;;;;;;;;;;;;;5115573;28;20311;-77
2022/01/24 01:23:51;;;;;;;;;;;;;;;;;;5115431;27;20475;-78
2022/01/24 01:26:36;;;;;;;;;;;;;;;;;;5115514;28;19915;-77
2022/01/24 01:29:19;;;;;;;;;;;;;;;;;;5115606;28;19918;-77
2022/01/24 01:31:48;;;;;;;;;;;;;;;;;;5115460;28;19919;-76
2022/01/24 01:58:02;;;;;;;;;;;;;;;;;;5114183;28;20022;-77
2022/01/24 02:00:28;;;;;;;;;;;;;;;;;;5114780;28;19992;-77
2022/01/24 02:02:53;;;;;;;;;;;;;;;;;;5114380;28;19961;-78
2022/01/24 02:05:19;;;;;;;;;;;;;;;;;;5113444;28;20383;-77
2022/01/24 02:07:45;;;;;;;;;;;;;;;;;;5114566;28;20393;-78
2022/01/24 02:10:11;;;;;;;;;;;;;;;;;;5114768;28;19922;-77
2022/01/24 02:12:36;;;;;;;;;;;;;;;;;;5114737;28;20014;-77
2022/01/24 02:15:02;;;;;;;;;;;;;;;;;;5114860;28;19961;-78
2022/01/24 02:17:52;;;;;;;;;;;;;;;;;;5114328;28;20328;-78
2022/01/24 02:23:01;;;;;;;;;;;;;;;;;;5114167;28;19955;-77
2022/01/24 02:25:28;;;;;;;;;;;;;;;;;;5114457;28;19923;-77
2022/01/24 02:27:58;;;;;;;;;;;;;;;;;;5114311;28;19963;-77
2022/01/24 02:33:09;;;;;;;;;;;;;;;;;;5114496;28;19973;-76
2022/01/24 02:35:35;;;;;;;;;;;;;;;;;;5114433;28;19920;-76
2022/01/24 02:38:04;;;;;;;;;;;;;;;;;;5112546;28;19965;-77
2022/01/24 02:40:29;;;;;;;;;;;;;;;;;;5114142;28;19916;-78
2022/01/24 02:48:24;;;;;;;;;;;;;;;;;;5114482;28;20007;-77
2022/01/24 02:53:33;;;;;;;;;;;;;;;;;;5116036;28;19911;-77
2022/01/24 02:55:58;;;;;;;;;;;;;;;;;;5121968;28;19916;-77
2022/01/24 02:58:24;;;;;;;;;;;;;;;;;;5123547;28;20387;-77
2022/01/24 03:00:50;;;;;;;;;;;;;;;;;;5123135;28;20057;-77
2022/01/24 03:03:15;;;;;;;;;;;;;;;;;;5118472;28;19916;-77
2022/01/24 03:05:41;;;;;;;;;;;;;;;;;;5114533;28;19923;-77
2022/01/24 03:08:07;;;;;;;;;;;;;;;;;;5114444;28;19966;-77
2022/01/24 03:10:39;;;;;;;;;;;;;;;;;;5114223;28;19919;-77
2022/01/24 03:13:20;;;;;;;;;;;;;;;;;;5114539;28;20322;-77
2022/01/24 03:15:47;;;;;;;;;;;;;;;;;;5113992;28;20439;-77
2022/01/24 03:18:13;;;;;;;;;;;;;;;;;;5113514;28;20360;-77
2022/01/24 03:20:39;;;;;;;;;;;;;;;;;;5113612;28;19976;-77
2022/01/24 03:23:05;;;;;;;;;;;;;;;;;;5113833;28;20014;-77
2022/01/24 03:25:30;;;;;;;;;;;;;;;;;;5113655;28;19916;-78
2022/01/24 03:27:56;;;;;;;;;;;;;;;;;;5113634;28;19916;-77
2022/01/24 03:30:21;;;;;;;;;;;;;;;;;;5113951;28;19953;-77
2022/01/24 03:32:47;;;;;;;;;;;;;;;;;;5112691;28;19923;-77
2022/01/24 03:35:12;;;;;;;;;;;;;;;;;;5113753;28;19923;-77
2022/01/24 03:37:38;;;;;;;;;;;;;;;;;;5112053;28;19916;-77
2022/01/24 03:40:03;;;;;;;;;;;;;;;;;;5113310;28;19965;-77
2022/01/24 03:42:29;;;;;;;;;;;;;;;;;;5117473;28;19916;-77
2022/01/24 03:44:58;;;;;;;;;;;;;;;;;;5113515;28;20397;-76
2022/01/24 03:50:06;;;;;;;;;;;;;;;;;;5113522;28;19915;-77
2022/01/24 03:52:32;;;;;;;;;;;;;;;;;;5113625;28;19961;-77
2022/01/24 03:54:58;;;;;;;;;;;;;;;;;;5113588;28;20329;-77
2022/01/24 03:57:23;;;;;;;;;;;;;;;;;;5113208;28;20382;-78
2022/01/24 03:59:49;;;;;;;;;;;;;;;;;;5113172;28;19920;-77
2022/01/24 04:02:15;;;;;;;;;;;;;;;;;;5113753;28;19973;-77
2022/01/24 04:04:41;;;;;;;;;;;;;;;;;;5116624;28;20359;-77
2022/01/24 04:07:07;;;;;;;;;;;;;;;;;;5116759;28;19942;-77
2022/01/24 04:09:34;;;;;;;;;;;;;;;;;;5116970;28;20279;-77
2022/01/24 04:12:00;;;;;;;;;;;;;;;;;;5116953;28;19919;-77
2022/01/24 04:22:09;;;;;;;;;;;;;;;;;;5117077;28;20005;-77
2022/01/24 04:24:34;;;;;;;;;;;;;;;;;;5116336;28;19959;-78
2022/01/24 04:27:00;;;;;;;;;;;;;;;;;;5116672;28;19922;-77
2022/01/24 04:29:25;;;;;;;;;;;;;;;;;;5116859;28;20359;-79
2022/01/24 04:31:51;;;;;;;;;;;;;;;;;;5116610;28;19915;-78
2022/01/24 04:34:16;;;;;;;;;;;;;;;;;;5116597;28;20279;-77
2022/01/24 04:36:41;;;;;;;;;;;;;;;;;;5116610;28;20385;-78
2022/01/24 04:39:07;;;;;;;;;;;;;;;;;;5115964;28;19916;-78
2022/01/24 04:41:37;;;;;;;;;;;;;;;;;;5109364;28;19981;-79
2022/01/24 04:44:13;;;;;;;;;;;;;;;;;;5112051;27;19924;-78
2022/01/24 04:46:55;;;;;;;;;;;;;;;;;;5115359;28;19916;-78
2022/01/24 04:52:15;;;;;;;;;;;;;;;;;;5116603;28;19966;-78
2022/01/24 04:54:44;;;;;;;;;;;;;;;;;;5095847;28;19916;-78
2022/01/24 04:57:13;;;;;;;;;;;;;;;;;;5095825;28;20316;-79
2022/01/24 04:59:39;;;;;;;;;;;;;;;;;;5102202;28;19941;-78
2022/01/24 05:02:05;;;;;;;;;;;;;;;;;;5102889;28;20390;-77
2022/01/24 05:04:31;;;;;;;;;;;;;;;;;;5106796;28;20006;-78
2022/01/24 05:06:56;;;;;;;;;;;;;;;;;;5107564;28;19920;-80
2022/01/24 05:09:22;;;;;;;;;;;;;;;;;;5100056;27;19916;-77
2022/01/24 05:25:09;;;;;;;;;;;;;;;;;;5094058;28;19923;-78
2022/01/24 05:27:34;;;;;;;;;;;;;;;;;;5094659;28;20006;-77
2022/01/24 05:29:59;;;;;;;;;;;;;;;;;;5094871;28;19924;-77
2022/01/24 05:32:25;;;;;;;;;;;;;;;;;;5095089;28;19916;-77
2022/01/24 05:34:50;;;;;;;;;;;;;;;;;;5094866;28;19920;-77
2022/01/24 05:37:16;;;;;;;;;;;;;;;;;;5095063;28;19961;-77
2022/01/24 05:39:41;;;;;;;;;;;;;;;;;;5094246;28;19943;-76
2022/01/24 05:42:07;;;;;;;;;;;;;;;;;;5094511;28;19916;-77
2022/01/24 05:44:32;;;;;;;;;;;;;;;;;;5094488;28;19916;-77
2022/01/24 05:46:58;;;;;;;;;;;;;;;;;;5094628;28;19923;-77
2022/01/24 05:49:23;;;;;;;;;;;;;;;;;;5093401;28;19917;-76
2022/01/24 05:51:48;;;;;;;;;;;;;;;;;;5094608;28;19923;-78
2022/01/24 05:54:14;;;;;;;;;;;;;;;;;;5094644;28;19927;-78
2022/01/24 05:56:39;;;;;;;;;;;;;;;;;;5094646;28;20003;-78
2022/01/24 05:59:05;;;;;;;;;;;;;;;;;;5094162;28;19916;-79
2022/01/24 06:01:30;;;;;;;;;;;;;;;;;;5094197;28;19920;-79
2022/01/24 06:03:56;;;;;;;;;;;;;;;;;;5093463;28;19916;-81
2022/01/24 06:06:22;;;;;;;;;;;;;;;;;;5106267;28;19919;-79
2022/01/24 06:08:47;;;;;;;;;;;;;;;;;;5109319;28;20298;-78
2022/01/24 06:11:13;;;;;;;;;;;;;;;;;;5113052;28;19961;-78
2022/01/24 06:13:38;;;;;;;;;;;;;;;;;;5113404;28;19916;-77
2022/01/24 06:16:05;;;;;;;;;;;;;;;;;;5114391;28;19969;-78
2022/01/24 06:18:30;;;;;;;;;;;;;;;;;;5113573;28;19939;-78
2022/01/24 06:20:57;;;;;;;;;;;;;;;;;;5113082;28;20383;-77
2022/01/24 06:23:25;;;;;;;;;;;;;;;;;;5113803;28;20412;-78
2022/01/24 06:25:50;;;;;;;;;;;;;;;;;;5113369;28;19915;-78
2022/01/24 06:28:15;;;;;;;;;;;;;;;;;;5115002;28;20641;-81
2022/01/24 06:30:41;;;;;;;;;;;;;;;;;;5112936;28;20398;-78
2022/01/24 06:33:06;;;;;;;;;;;;;;;;;;5114681;28;20006;-78
2022/01/24 06:35:32;;;;;;;;;;;;;;;;;;5114015;28;20012;-81
2022/01/24 06:37:57;;;;;;;;;;;;;;;;;;5114496;28;19923;-79
2022/01/24 06:40:23;;;;;;;;;;;;;;;;;;5113949;28;19916;-78
2022/01/24 06:42:48;;;;;;;;;;;;;;;;;;5113766;28;19916;-79
2022/01/24 06:45:14;;;;;;;;;;;;;;;;;;5114285;28;19920;-79
2022/01/24 06:47:44;;;;;;;;;;;;;;;;;;5113967;28;20388;-78
2022/01/24 06:50:09;;;;;;;;;;;;;;;;;;5113898;28;20386;-80
2022/01/24 06:52:35;;;;;;;;;;;;;;;;;;5114022;28;20015;-82
2022/01/24 06:55:00;;;;;;;;;;;;;;;;;;5114284;28;19968;-81
2022/01/24 06:57:26;;;;;;;;;;;;;;;;;;5114241;28;19969;-81
2022/01/24 06:59:51;;;;;;;;;;;;;;;;;;5113759;28;19966;-78
2022/01/24 07:02:17;;;;;;;;;;;;;;;;;;5115679;28;19916;-79
2022/01/24 07:04:43;;;;;;;;;;;;;;;;;;5115266;28;19922;-78
2022/01/24 07:07:09;;;;;;;;;;;;;;;;;;5114365;28;19923;-78
2022/01/24 07:09:35;;;;;;;;;;;;;;;;;;5114570;28;19920;-78
2022/01/24 07:12:01;;;;;;;;;;;;;;;;;;5102327;28;19916;-80
2022/01/24 07:14:26;;;;;;;;;;;;;;;;;;5094856;28;19948;-78
2022/01/24 07:19:20;;;;;;;;;;;;;;;;;;5094365;28;19919;-79
2022/01/24 07:21:46;;;;;;;;;;;;;;;;;;5093747;28;19917;-81
2022/01/24 07:24:11;;;;;;;;;;;;;;;;;;5093781;28;19916;-80
2022/01/24 07:26:36;;;;;;;;;;;;;;;;;;5093445;28;19916;-79
2022/01/24 07:29:02;;;;;;;;;;;;;;;;;;5093368;28;20015;-79
2022/01/24 07:31:27;;;;;;;;;;;;;;;;;;5093229;28;19916;-79
2022/01/24 07:33:55;;;;;;;;;;;;;;;;;;5093224;28;19923;-82
2022/01/24 07:36:21;;;;;;;;;;;;;;;;;;5093559;28;19923;-79
2022/01/24 07:38:46;;;;;;;;;;;;;;;;;;5112324;28;19916;-79
2022/01/24 07:41:12;;;;;;;;;;;;;;;;;;5097178;28;19920;-78
2022/01/24 07:43:37;;;;;;;;;;;;;;;;;;5097147;28;19916;-81
2022/01/24 07:46:02;;;;;;;;;;;;;;;;;;5097123;28;19951;-78
2022/01/24 07:48:28;;;;;;;;;;;;;;;;;;5096514;28;20006;-78
2022/01/24 07:50:53;;;;;;;;;;;;;;;;;;5097396;28;19970;-80
2022/01/24 07:53:20;;;;;;;;;;;;;;;;;;5096938;28;19916;-79
2022/01/24 07:55:45;;;;;;;;;;;;;;;;;;5097078;28;19916;-81
2022/01/24 07:58:11;;;;;;;;;;;;;;;;;;5097010;28;20003;-81
2022/01/24 08:00:37;;;;;;;;;;;;;;;;;;5096772;28;20360;-80
2022/01/24 08:03:04;;;;;;;;;;;;;;;;;;5096721;28;19916;-79
2022/01/24 08:05:29;;;;;;;;;;;;;;;;;;5096713;28;19916;-79
2022/01/24 08:07:55;;;;;;;;;;;;;;;;;;5096234;28;20003;-79
2022/01/24 08:10:20;;;;;;;;;;;;;;;;;;5096706;28;19912;-78
2022/01/24 08:12:46;;;;;;;;;;;;;;;;;;5096720;28;19931;-78
2022/01/24 08:15:14;;;;;;;;;;;;;;;;;;5096760;28;20311;-77
2022/01/24 08:17:40;;;;;;;;;;;;;;;;;;5096097;28;19931;-78
2022/01/24 08:20:05;;;;;;;;;;;;;;;;;;5096695;28;19916;-79
2022/01/24 08:22:31;;;;;;;;;;;;;;;;;;5096355;28;20273;-78
2022/01/24 08:24:56;;;;;;;;;;;;;;;;;;5096363;28;19916;-78
2022/01/24 08:27:24;;;;;;;;;;;;;;;;;;5096453;28;19912;-79
2022/01/24 08:29:50;;;;;;;;;;;;;;;;;;5096292;28;19920;-78
2022/01/24 08:32:16;;;;;;;;;;;;;;;;;;5096277;28;20382;-78
2022/01/24 08:34:41;;;;;;;;;;;;;;;;;;5096029;28;20275;-78
2022/01/24 08:37:07;;;;;;;;;;;;;;;;;;5096266;28;20016;-79
2022/01/24 08:39:32;;;;;;;;;;;;;;;;;;5095814;28;19973;-81
2022/01/24 08:42:10;;;;;;;;;;;;;;;;;;5096321;28;19923;-81
2022/01/24 08:47:04;;;;;;;;;;;;;;;;;;5096114;28;19970;-82
2022/01/24 08:49:30;;;;;;;;;;;;;;;;;;5094972;28;19920;-79
2022/01/24 08:51:55;;;;;;;;;;;;;;;;;;5096591;28;19923;-79
2022/01/24 08:54:20;;;;;;;;;;;;;;;;;;5095879;28;20256;-78
2022/01/24 08:56:47;;;;;;;;;;;;;;;;;;5095534;28;20010;-82
2022/01/24 08:59:13;;;;;;;;;;;;;;;;;;5098609;28;20372;-78
2022/01/24 09:01:38;;;;;;;;;;;;;;;;;;5116688;28;19916;-78
2022/01/24 09:04:04;;;;;;;;;;;;;;;;;;5116123;28;20475;-83
2022/01/24 09:06:29;;;;;;;;;;;;;;;;;;5115923;28;20385;-79
2022/01/24 09:08:56;;;;;;;;;;;;;;;;;;5116414;27;20007;-79
2022/01/24 09:11:23;;;;;;;;;;;;;;;;;;5116130;28;20002;-79
2022/01/24 09:13:49;;;;;;;;;;;;;;;;;;5115791;28;19920;-80
2022/01/24 09:16:14;;;;;;;;;;;;;;;;;;5115983;28;20378;-79
2022/01/24 09:18:40;;;;;;;;;;;;;;;;;;5116126;28;19962;-79
2022/01/24 09:21:05;;;;;;;;;;;;;;;;;;5116278;28;20032;-79
2022/01/24 09:23:31;;;;;;;;;;;;;;;;;;5115781;27;19922;-81
2022/01/24 09:25:56;;;;;;;;;;;;;;;;;;5113848;28;19969;-78
2022/01/24 09:28:21;;;;;;;;;;;;;;;;;;5115741;28;19958;-81
2022/01/24 09:30:47;;;;;;;;;;;;;;;;;;5115837;28;19923;-80
2022/01/24 09:33:12;;;;;;;;;;;;;;;;;;5116978;28;19915;-78
2022/01/24 09:35:39;;;;;;;;;;;;;;;;;;5116231;28;19911;-82
2022/01/24 09:38:05;;;;;;;;;;;;;;;;;;5116025;28;19920;-80
2022/01/24 09:40:34;;;;;;;;;;;;;;;;;;5117059;28;20367;-79
2022/01/24 09:43:00;;;;;;;;;;;;;;;;;;5116157;28;19915;-81
2022/01/24 09:45:25;;;;;;;;;;;;;;;;;;5115756;28;20044;-81
2022/01/24 09:47:52;;;;;;;;;;;;;;;;;;5116554;27;19919;-81
2022/01/24 09:50:18;;;;;;;;;;;;;;;;;;5117792;28;19922;-81
2022/01/24 09:52:44;;;;;;;;;;;;;;;;;;5116749;28;19919;-79
2022/01/24 09:55:10;;;;;;;;;;;;;;;;;;5115543;28;19934;-77
2022/01/24 09:57:36;;;;;;;;;;;;;;;;;;5115319;27;20268;-78
2022/01/24 10:00:01;;;;;;;;;;;;;;;;;;5113791;28;19920;-78
2022/01/24 10:02:27;;;;;;;;;;;;;;;;;;5115120;28;20355;-77
2022/01/24 10:05:13;;;;;;;;;;;;;;;;;;5112587;28;20206;-82
2022/01/24 10:07:39;;;;;;;;;;;;;;;;;;5114475;28;20291;-78
2022/01/24 10:10:05;;;;;;;;;;;;;;;;;;5114911;28;20379;-78
2022/01/24 10:17:54;;;;;;;;;;;;;;;;;;5114977;28;19923;-79
2022/01/24 10:20:19;;;;;;;;;;;;;;;;;;5114828;28;19916;-77
2022/01/24 10:23:03;;;;;;;;;;;;;;;;;;5114436;28;19969;-77
2022/01/24 10:25:29;;;;;;;;;;;;;;;;;;5114495;28;20010;-78
2022/01/24 10:28:01;;;;;;;;;;;;;;;;;;5114385;28;19951;-78
2022/01/24 10:30:27;;;;;;;;;;;;;;;;;;5113365;28;19920;-77
2022/01/24 10:32:55;;;;;;;;;;;;;;;;;;5114596;28;19942;-78
2022/01/24 10:35:24;;;;;;;;;;;;;;;;;;5114701;28;19916;-77
2022/01/24 10:37:53;;;;;;;;;;;;;;;;;;5114170;28;20070;-78
2022/01/24 10:40:49;;;;;;;;;;;;;;;;;;5114236;28;19961;-77
2022/01/24 10:43:16;;;;;;;;;;;;;;;;;;5111998;28;19951;-78
2022/01/24 10:45:44;;;;;;;;;;;;;;;;;;5113586;28;19922;-78
2022/01/24 10:48:09;;;;;;;;;;;;;;;;;;5113855;28;19916;-77
2022/01/24 10:50:35;;;;;;;;;;;;;;;;;;5114245;28;19916;-78
2022/01/24 10:53:11;;;;;;;;;;;;;;;;;;5115398;28;19916;-79
2022/01/24 11:07:51;;;;;;;;;;;;;;;;;;5151396;27;19919;-81
2022/01/24 11:10:17;;;;;;;;;;;;;;;;;;5151480;27;19919;-82
2022/01/24 11:12:42;;;;;;;;;;;;;;;;;;5152024;27;19916;-80
2022/01/24 11:15:10;;;;;;;;;;;;;;;;;;5152700;27;19935;-81
2022/01/24 11:17:35;;;;;;;;;;;;;;;;;;5152870;27;19922;-81
2022/01/24 11:20:02;;;;;;;;;;;;;;;;;;5152863;27;19915;-83
2022/01/24 11:22:30;;;;;;;;;;;;;;;;;;5152727;27;19919;-83
2022/01/24 11:25:00;;;;;;;;;;;;;;;;;;5152711;27;19919;-85
2022/01/24 11:27:26;;;;;;;;;;;;;;;;;;5151352;27;20022;-80
2022/01/24 11:29:54;;;;;;;;;;;;;;;;;;5152502;27;20396;-82
2022/01/24 11:32:25;;;;;;;;;;;;;;;;;;5152466;27;20422;-81
2022/01/24 11:34:52;;;;;;;;;;;;;;;;;;5152444;27;20281;-80
2022/01/24 11:37:33;;;;;;;;;;;;;;;;;;5152486;27;20331;-81
2022/01/24 11:39:59;;;;;;;;;;;;;;;;;;5152178;27;19919;-80
2022/01/24 11:42:32;;;;;;;;;;;;;;;;;;5152392;27;19916;-82
2022/01/24 11:45:03;;;;;;;;;;;;;;;;;;5152368;27;19915;-80
2022/01/24 11:47:31;;;;;;;;;;;;;;;;;;5151023;27;20281;-80
2022/01/24 11:49:57;;;;;;;;;;;;;;;;;;5152150;27;20282;-79
2022/01/24 11:52:33;;;;;;;;;;;;;;;;;;5152156;27;19941;-80
2022/01/24 11:57:36;;;;;;;;;;;;;;;;;;5156648;27;20301;-83
2022/01/24 12:00:03;;;;;;;;;;;;;;;;;;5155484;27;19960;-80
2022/01/24 12:02:30;;;;;;;;;;;;;;;;;;5152598;27;20395;-80
2022/01/24 12:05:00;;;;;;;;;;;;;;;;;;5152397;27;19984;-80
2022/01/24 12:07:27;;;;;;;;;;;;;;;;;;5145530;27;19926;-79
2022/01/24 12:09:53;;;;;;;;;;;;;;;;;;5136736;27;19915;-80
2022/01/24 12:12:37;;;;;;;;;;;;;;;;;;5139058;27;20378;-80
2022/01/24 12:15:04;;;;;;;;;;;;;;;;;;5138363;27;19916;-80
2022/01/24 12:17:45;;;;;;;;;;;;;;;;;;5117185;27;19916;-83
2022/01/24 12:20:29;;;;;;;;;;;;;;;;;;5115576;28;20327;-79
2022/01/24 12:22:54;;;;;;;;;;;;;;;;;;5116688;28;20364;-82
2022/01/24 12:25:39;;;;;;;;;;;;;;;;;;5116728;28;19923;-83
2022/01/24 12:28:15;;;;;;;;;;;;;;;;;;5116673;28;20363;-80
2022/01/24 12:30:59;;;;;;;;;;;;;;;;;;5116600;28;19923;-81
2022/01/24 12:33:28;;;;;;;;;;;;;;;;;;5115768;28;20353;-80
2022/01/24 12:35:54;;;;;;;;;;;;;;;;;;5116470;28;20336;-81
2022/01/24 12:38:20;;;;;;;;;;;;;;;;;;5116280;28;19959;-80
2022/01/24 12:40:45;;;;;;;;;;;;;;;;;;5116409;28;19924;-80
2022/01/24 12:43:19;;;;;;;;;;;;;;;;;;5116352;28;19923;-81
2022/01/24 12:48:29;;;;;;;;;;;;;;;;;;5116674;28;19954;-81
2022/01/24 12:50:54;;;;;;;;;;;;;;;;;;5116062;28;19942;-84
2022/01/24 12:53:21;;;;;;;;;;;;;;;;;;5115619;28;19948;-81
2022/01/24 12:55:56;;;;;;;;;;;;;;;;;;5116904;28;19922;-83
2022/01/24 12:58:31;;;;;;;;;;;;;;;;;;5116023;28;19919;-80
2022/01/24 13:00:57;;;;;;;;;;;;;;;;;;5106497;27;19973;-79
2022/01/24 13:03:23;;;;;;;;;;;;;;;;;;5101551;28;19955;-83
2022/01/24 13:05:48;;;;;;;;;;;;;;;;;;5100090;28;19973;-79
2022/01/24 13:08:14;;;;;;;;;;;;;;;;;;5102543;28;19920;-80
2022/01/24 13:10:40;;;;;;;;;;;;;;;;;;5113678;28;19920;-81
2022/01/24 13:13:11;;;;;;;;;;;;;;;;;;5113774;28;19920;-80
2022/01/24 13:21:11;;;;;;;;;;;;;;;;;;5110705;28;20306;-79
2022/01/24 13:23:41;;;;;;;;;;;;;;;;;;5106406;28;20385;-80
2022/01/24 13:26:07;;;;;;;;;;;;;;;;;;5105665;28;19920;-79
2022/01/24 13:28:32;;;;;;;;;;;;;;;;;;5102697;28;20288;-81
2022/01/24 13:31:01;;;;;;;;;;;;;;;;;;5103908;28;19924;-81
2022/01/24 13:33:27;;;;;;;;;;;;;;;;;;5104167;28;19924;-80
2022/01/24 13:35:53;;;;;;;;;;;;;;;;;;5110251;28;20377;-81
2022/01/24 13:38:28;;;;;;;;;;;;;;;;;;5115096;28;19915;-81
2022/01/24 13:40:57;;;;;;;;;;;;;;;;;;5115178;28;20014;-85
2022/01/24 13:43:41;;;;;;;;;;;;;;;;;;5115167;28;20013;-83
2022/01/24 13:46:09;;;;;;;;;;;;;;;;;;5113738;28;19955;-81
2022/01/24 13:48:48;;;;;;;;;;;;;;;;;;5112227;28;19927;-84
2022/01/24 13:51:15;;;;;;;;;;;;;;;;;;5114038;28;19912;-87
2022/01/24 13:53:42;;;;;;;;;;;;;;;;;;5114116;28;19916;-83
2022/01/24 13:56:25;;;;;;;;;;;;;;;;;;5114818;28;19915;-83
2022/01/24 13:58:57;;;;;;;;;;;;;;;;;;5114900;28;19915;-84
2022/01/24 14:01:22;;;;;;;;;;;;;;;;;;5114811;28;19911;-82
2022/01/24 14:03:55;;;;;;;;;;;;;;;;;;5114478;28;20408;-85
2022/01/24 14:06:20;;;;;;;;;;;;;;;;;;5114411;28;20011;-85
2022/01/24 14:08:46;;;;;;;;;;;;;;;;;;5114744;28;20013;-82
2022/01/24 14:11:15;;;;;;;;;;;;;;;;;;5114671;28;19923;-86
2022/01/24 14:13:48;;;;;;;;;;;;;;;;;;5112665;28;19941;-84
2022/01/24 14:16:33;;;;;;;;;;;;;;;;;;5114821;28;20354;-83
2022/01/24 14:19:02;;;;;;;;;;;;;;;;;;5115126;28;19919;-85
2022/01/24 14:21:28;;;;;;;;;;;;;;;;;;5114772;28;19924;-86
2022/01/24 14:23:55;;;;;;;;;;;;;;;;;;5114486;28;19915;-83
2022/01/24 14:26:21;;;;;;;;;;;;;;;;;;5113324;28;19916;-81
2022/01/24 14:28:48;;;;;;;;;;;;;;;;;;5115043;28;20021;-80
2022/01/24 14:31:15;;;;;;;;;;;;;;;;;;5113228;28;19920;-82
2022/01/24 14:33:43;;;;;;;;;;;;;;;;;;5113902;28;20366;-81
2022/01/24 14:36:12;;;;;;;;;;;;;;;;;;5114436;28;19965;-81
2022/01/24 14:38:39;;;;;;;;;;;;;;;;;;5114720;28;19919;-82
2022/01/24 14:41:14;;;;;;;;;;;;;;;;;;5115627;28;19916;-82
2022/01/24 14:46:26;;;;;;;;;;;;;;;;;;5113419;28;19965;-79
2022/01/24 14:48:51;;;;;;;;;;;;;;;;;;5114170;28;19951;-80
2022/01/24 14:51:18;;;;;;;;;;;;;;;;;;5113901;28;19958;-79
2022/01/24 14:53:44;;;;;;;;;;;;;;;;;;5113736;28;20359;-79
2022/01/24 14:56:11;;;;;;;;;;;;;;;;;;5113887;28;19970;-79
2022/01/24 14:58:37;;;;;;;;;;;;;;;;;;5112383;28;19949;-79
2022/01/24 15:01:02;;;;;;;;;;;;;;;;;;5113961;28;19935;-80
2022/01/24 15:03:27;;;;;;;;;;;;;;;;;;5114093;28;19920;-79
2022/01/24 15:05:55;;;;;;;;;;;;;;;;;;5112529;28;19919;-79
2022/01/24 15:08:21;;;;;;;;;;;;;;;;;;5112157;28;19945;-79
2022/01/24 15:10:46;;;;;;;;;;;;;;;;;;5112011;28;19920;-80
2022/01/24 15:13:13;;;;;;;;;;;;;;;;;;5112357;28;19950;-80
2022/01/24 15:15:44;;;;;;;;;;;;;;;;;;5111018;28;19962;-79
2022/01/24 15:26:41;;;;;;;;;;;;;;;;;;5050765;28;20046;-79
2022/01/24 15:29:06;;;;;;;;;;;;;;;;;;5050941;28;20446;-79
2022/01/24 15:31:32;;;;;;;;;;;;;;;;;;5050759;28;19920;-80
2022/01/24 15:33:57;;;;;;;;;;;;;;;;;;5050373;28;19920;-79
2022/01/24 15:36:22;;;;;;;;;;;;;;;;;;5050870;28;20308;-80
2022/01/24 15:38:48;;;;;;;;;;;;;;;;;;5050806;28;20411;-80
2022/01/24 15:41:14;;;;;;;;;;;;;;;;;;5051072;28;20359;-79
2022/01/24 15:44:05;;;;;;;;;;;;;;;;;;5062870;28;19943;-83
2022/01/24 15:49:05;;;;;;;;;;;;;;;;;;5117768;28;19916;-82
2022/01/24 15:51:30;;;;;;;;;;;;;;;;;;5117242;28;19916;-81
2022/01/24 15:53:56;;;;;;;;;;;;;;;;;;5117087;28;20290;-80
2022/01/24 15:58:50;;;;;;;;;;;;;;;;;;5117377;28;19915;-80
2022/01/24 16:01:15;;;;;;;;;;;;;;;;;;5115924;28;20397;-81
2022/01/24 16:03:41;;;;;;;;;;;;;;;;;;5114298;28;19927;-80
2022/01/24 16:06:07;;;;;;;;;;;;;;;;;;5113919;28;19920;-79
2022/01/24 16:08:32;;;;;;;;;;;;;;;;;;5114767;28;20333;-80
2022/01/24 16:10:58;;;;;;;;;;;;;;;;;;5116659;28;19919;-79
2022/01/24 16:13:24;;;;;;;;;;;;;;;;;;5114386;28;19965;-78
2022/01/24 16:15:50;;;;;;;;;;;;;;;;;;5115564;28;19916;-79
2022/01/24 16:18:17;;;;;;;;;;;;;;;;;;5116647;28;19923;-80
2022/01/24 16:25:37;;;;;;;;;;;;;;;;;;5122076;28;20279;-80
2022/01/24 16:28:24;;;;;;;;;;;;;;;;;;5116640;28;20016;-84
2022/01/24 16:30:51;;;;;;;;;;;;;;;;;;5116834;27;19916;-85
2022/01/24 16:33:18;;;;;;;;;;;;;;;;;;5112694;28;19926;-82
2022/01/24 16:35:44;;;;;;;;;;;;;;;;;;5111474;28;20068;-82
2022/01/24 16:38:11;;;;;;;;;;;;;;;;;;5115714;28;19969;-83
2022/01/24 16:40:45;;;;;;;;;;;;;;;;;;5115473;28;19945;-84
2022/01/24 16:48:27;;;;;;;;;;;;;;;;;;5105985;28;19923;-81
2022/01/24 16:50:53;;;;;;;;;;;;;;;;;;5101674;28;20002;-84
2022/01/24 16:53:20;;;;;;;;;;;;;;;;;;5101487;28;19920;-81
2022/01/24 16:55:46;;;;;;;;;;;;;;;;;;5099227;28;19920;-84
2022/01/24 16:58:11;;;;;;;;;;;;;;;;;;5104218;28;19919;-82
2022/01/24 17:00:38;;;;;;;;;;;;;;;;;;5104158;28;19965;-84
2022/01/24 17:03:03;;;;;;;;;;;;;;;;;;5107475;28;19924;-82
2022/01/24 17:05:29;;;;;;;;;;;;;;;;;;5102863;28;19942;-85
2022/01/24 17:07:54;;;;;;;;;;;;;;;;;;5104792;28;19941;-82
2022/01/24 17:10:20;;;;;;;;;;;;;;;;;;5109068;28;19967;-81
2022/01/24 17:12:47;;;;;;;;;;;;;;;;;;5109956;28;19967;-84
2022/01/24 17:15:14;;;;;;;;;;;;;;;;;;5108115;28;20378;-81
2022/01/24 17:17:40;;;;;;;;;;;;;;;;;;5095307;28;19930;-84
2022/01/24 17:20:06;;;;;;;;;;;;;;;;;;5113556;28;19920;-80
2022/01/24 17:22:32;;;;;;;;;;;;;;;;;;5111233;28;19927;-81
2022/01/24 17:24:57;;;;;;;;;;;;;;;;;;5110571;28;20037;-81
2022/01/24 17:27:23;;;;;;;;;;;;;;;;;;5112318;28;19933;-80
2022/01/24 17:29:49;;;;;;;;;;;;;;;;;;5111394;28;19938;-80
2022/01/24 17:32:15;;;;;;;;;;;;;;;;;;5113647;28;19943;-83
2022/01/24 17:34:41;;;;;;;;;;;;;;;;;;5111377;28;19959;-83
2022/01/24 17:37:06;;;;;;;;;;;;;;;;;;5114500;28;20291;-81
2022/01/24 17:39:32;;;;;;;;;;;;;;;;;;5115004;28;19916;-80
2022/01/24 17:41:58;;;;;;;;;;;;;;;;;;5113329;28;19916;-82
2022/01/24 17:44:23;;;;;;;;;;;;;;;;;;5115141;28;19968;-83
2022/01/24 17:46:49;;;;;;;;;;;;;;;;;;5114869;28;20420;-79
2022/01/24 17:49:14;;;;;;;;;;;;;;;;;;5115353;27;19916;-83
2022/01/24 17:51:40;;;;;;;;;;;;;;;;;;5114525;28;19923;-82
2022/01/24 17:54:05;;;;;;;;;;;;;;;;;;5113742;28;19927;-79
2022/01/24 17:56:31;;;;;;;;;;;;;;;;;;5106976;28;19967;-80
2022/01/24 17:58:56;;;;;;;;;;;;;;;;;;5110468;28;20010;-80
2022/01/24 18:01:21;;;;;;;;;;;;;;;;;;5110769;28;20011;-83
2022/01/24 18:03:47;;;;;;;;;;;;;;;;;;5109302;28;20026;-81
2022/01/24 18:06:12;;;;;;;;;;;;;;;;;;5113280;28;19920;-82
2022/01/24 18:08:39;;;;;;;;;;;;;;;;;;5115069;28;19920;-80
2022/01/24 18:11:10;;;;;;;;;;;;;;;;;;5114837;28;20371;-80
2022/01/24 18:13:36;;;;;;;;;;;;;;;;;;5114066;28;19923;-83
2022/01/24 18:16:01;;;;;;;;;;;;;;;;;;5113758;28;20290;-80
2022/01/24 18:18:30;;;;;;;;;;;;;;;;;;5114328;28;19915;-81
2022/01/24 18:20:55;;;;;;;;;;;;;;;;;;5114064;28;19915;-79
2022/01/24 18:23:21;;;;;;;;;;;;;;;;;;5113287;28;19984;-79
2022/01/24 18:25:46;;;;;;;;;;;;;;;;;;5113954;28;19923;-81
2022/01/24 18:28:12;;;;;;;;;;;;;;;;;;5111980;28;19931;-82
2022/01/24 18:30:37;;;;;;;;;;;;;;;;;;5112424;28;20275;-80
2022/01/24 18:33:03;;;;;;;;;;;;;;;;;;5114392;28;19916;-80
2022/01/24 18:35:29;;;;;;;;;;;;;;;;;;5112529;28;19976;-82
2022/01/24 18:37:54;;;;;;;;;;;;;;;;;;5113345;28;20061;-82
2022/01/24 18:40:21;;;;;;;;;;;;;;;;;;5114053;28;19916;-80
2022/01/24 18:42:47;;;;;;;;;;;;;;;;;;5112640;28;20370;-87
2022/01/24 18:45:13;;;;;;;;;;;;;;;;;;5110572;28;19943;-88
2022/01/24 18:47:39;;;;;;;;;;;;;;;;;;5109745;28;20362;-86
2022/01/24 18:50:06;;;;;;;;;;;;;;;;;;5109209;28;19924;-87
2022/01/24 18:52:31;;;;;;;;;;;;;;;;;;5111160;28;19919;-84
2022/01/24 18:54:57;;;;;;;;;;;;;;;;;;5110873;28;19935;-84
2022/01/24 18:57:22;;;;;;;;;;;;;;;;;;5109408;28;19923;-84
2022/01/24 18:59:47;;;;;;;;;;;;;;;;;;5108366;28;19993;-86
2022/01/24 19:02:13;;;;;;;;;;;;;;;;;;5102381;28;19920;-86
2022/01/24 19:04:39;;;;;;;;;;;;;;;;;;5113820;28;19999;-85
2022/01/24 19:07:05;;;;;;;;;;;;;;;;;;5113895;28;19966;-89
2022/01/24 19:09:30;;;;;;;;;;;;;;;;;;5114615;28;19961;-89
2022/01/24 19:11:56;;;;;;;;;;;;;;;;;;5114668;28;19923;-87
2022/01/24 19:14:23;;;;;;;;;;;;;;;;;;5114551;28;19923;-85
2022/01/24 19:16:51;;;;;;;;;;;;;;;;;;5113459;28;20007;-83
2022/01/24 19:19:33;;;;;;;;;;;;;;;;;;5118843;28;20351;-86
2022/01/24 19:24:43;;;;;;;;;;;;;;;;;;5118186;28;19927;-83
2022/01/24 19:27:09;;;;;;;;;;;;;;;;;;5117701;28;20421;-83